sensor_id;sensor_type;location;lat;lon;timestamp;P1;durP1;ratioP1;P2;durP2;ratioP2
1320;SDS011;653;51.480;11.992;2022-10-30T00:00:42;17.53;;;13.90;;
1320;SDS011;653;51.480;11.992;2022-10-30T00:03:09;25.53;;;16.87;;
1320;SDS011;653;51.480;11.992;2022-10-30T00:05:35;19.03;;;16.10;;
1320;SDS011;653;51.480;11.992;2022-10-30T00:08:01;23.73;;;16.43;;
1320;SDS011;653;51.480;11.992;2022-10-30T00:10:26;22.40;;;14.93;;
1320;SDS011;653;51.480;11.992;2022-10-30T00:12:52;21.20;;;16.17;;
1320;SDS011;653;51.480;11.992;2022-10-30T00:15:18;19.33;;;15.33;;
1320;SDS011;653;51.480;11.992;2022-10-30T00:17:43;25.43;;;17.17;;
1320;SDS011;653;51.480;11.992;2022-10-30T00:20:08;20.53;;;15.97;;
1320;SDS011;653;51.480;11.992;2022-10-30T00:22:34;21.43;;;15.27;;
1320;SDS011;653;51.480;11.992;2022-10-30T00:25:00;22.50;;;16.27;;
1320;SDS011;653;51.480;11.992;2022-10-30T00:27:26;25.47;;;15.67;;
1320;SDS011;653;51.480;11.992;2022-10-30T00:29:51;23.83;;;15.20;;
1320;SDS011;653;51.480;11.992;2022-10-30T00:32:23;19.53;;;15.17;;
1320;SDS011;653;51.480;11.992;2022-10-30T00:34:48;19.63;;;14.20;;
1320;SDS011;653;51.480;11.992;2022-10-30T00:37:14;26.40;;;15.30;;
1320;SDS011;653;51.480;11.992;2022-10-30T00:39:39;20.33;;;15.00;;
1320;SDS011;653;51.480;11.992;2022-10-30T00:42:05;20.40;;;14.97;;
1320;SDS011;653;51.480;11.992;2022-10-30T00:44:34;22.50;;;15.50;;
1320;SDS011;653;51.480;11.992;2022-10-30T00:47:12;24.23;;;16.00;;
1320;SDS011;653;51.480;11.992;2022-10-30T00:49:48;22.97;;;15.83;;
1320;SDS011;653;51.480;11.992;2022-10-30T00:52:15;24.20;;;15.07;;
1320;SDS011;653;51.480;11.992;2022-10-30T00:54:40;19.57;;;15.10;;
1320;SDS011;653;51.480;11.992;2022-10-30T00:57:06;21.53;;;15.27;;
1320;SDS011;653;51.480;11.992;2022-10-30T00:59:32;19.10;;;13.50;;
1320;SDS011;653;51.480;11.992;2022-10-30T01:01:58;25.40;;;16.07;;
1320;SDS011;653;51.480;11.992;2022-10-30T01:04:26;23.53;;;14.60;;
1320;SDS011;653;51.480;11.992;2022-10-30T01:06:53;22.20;;;14.43;;
1320;SDS011;653;51.480;11.992;2022-10-30T01:09:18;22.87;;;16.53;;
1320;SDS011;653;51.480;11.992;2022-10-30T01:11:44;22.60;;;14.63;;
1320;SDS011;653;51.480;11.992;2022-10-30T01:14:09;22.30;;;14.60;;
1320;SDS011;653;51.480;11.992;2022-10-30T01:19:24;19.70;;;13.70;;
1320;SDS011;653;51.480;11.992;2022-10-30T01:29:54;21.90;;;14.20;;
1320;SDS011;653;51.480;11.992;2022-10-30T01:35:43;23.03;;;15.00;;
1320;SDS011;653;51.480;11.992;2022-10-30T01:38:20;20.87;;;13.57;;
1320;SDS011;653;51.480;11.992;2022-10-30T01:40:52;25.10;;;15.40;;
1320;SDS011;653;51.480;11.992;2022-10-30T01:43:17;17.57;;;13.80;;
1320;SDS011;653;51.480;11.992;2022-10-30T01:48:51;17.30;;;12.77;;
1320;SDS011;653;51.480;11.992;2022-10-30T01:57:17;18.83;;;14.67;;
1320;SDS011;653;51.480;11.992;2022-10-30T01:59:59;20.73;;;13.60;;
1320;SDS011;653;51.480;11.992;2022-10-30T02:02:28;17.40;;;12.50;;
1320;SDS011;653;51.480;11.992;2022-10-30T02:04:54;19.33;;;12.90;;
1320;SDS011;653;51.480;11.992;2022-10-30T02:07:19;16.63;;;12.10;;
1320;SDS011;653;51.480;11.992;2022-10-30T02:09:45;19.10;;;12.97;;
1320;SDS011;653;51.480;11.992;2022-10-30T02:12:10;20.33;;;12.70;;
1320;SDS011;653;51.480;11.992;2022-10-30T02:14:37;16.13;;;11.60;;
1320;SDS011;653;51.480;11.992;2022-10-30T02:17:05;19.70;;;12.77;;
1320;SDS011;653;51.480;11.992;2022-10-30T02:19:33;23.33;;;12.33;;
1320;SDS011;653;51.480;11.992;2022-10-30T02:21:59;18.17;;;11.43;;
1320;SDS011;653;51.480;11.992;2022-10-30T02:24:24;16.77;;;11.20;;
1320;SDS011;653;51.480;11.992;2022-10-30T02:26:49;18.10;;;13.10;;
1320;SDS011;653;51.480;11.992;2022-10-30T02:29:15;23.00;;;12.87;;
1320;SDS011;653;51.480;11.992;2022-10-30T02:31:44;17.50;;;11.93;;
1320;SDS011;653;51.480;11.992;2022-10-30T02:34:10;16.13;;;12.37;;
1320;SDS011;653;51.480;11.992;2022-10-30T02:36:36;22.43;;;12.50;;
1320;SDS011;653;51.480;11.992;2022-10-30T02:39:01;16.27;;;13.00;;
1320;SDS011;653;51.480;11.992;2022-10-30T02:41:27;19.40;;;13.33;;
1320;SDS011;653;51.480;11.992;2022-10-30T02:43:52;19.73;;;12.93;;
1320;SDS011;653;51.480;11.992;2022-10-30T02:46:18;19.37;;;13.60;;
1320;SDS011;653;51.480;11.992;2022-10-30T02:48:43;19.00;;;12.63;;
1320;SDS011;653;51.480;11.992;2022-10-30T02:51:11;17.20;;;11.53;;
1320;SDS011;653;51.480;11.992;2022-10-30T02:53:36;22.63;;;13.47;;
1320;SDS011;653;51.480;11.992;2022-10-30T02:56:03;19.93;;;12.60;;
1320;SDS011;653;51.480;11.992;2022-10-30T02:58:36;26.10;;;12.60;;
1320;SDS011;653;51.480;11.992;2022-10-30T03:01:06;21.53;;;12.50;;
1320;SDS011;653;51.480;11.992;2022-10-30T03:03:32;19.07;;;12.00;;
1320;SDS011;653;51.480;11.992;2022-10-30T03:06:02;14.73;;;11.63;;
1320;SDS011;653;51.480;11.992;2022-10-30T03:08:31;17.17;;;12.10;;
1320;SDS011;653;51.480;11.992;2022-10-30T03:13:33;21.20;;;12.20;;
1320;SDS011;653;51.480;11.992;2022-10-30T03:16:03;17.33;;;12.10;;
1320;SDS011;653;51.480;11.992;2022-10-30T03:18:30;20.43;;;13.07;;
1320;SDS011;653;51.480;11.992;2022-10-30T03:21:00;18.17;;;12.20;;
1320;SDS011;653;51.480;11.992;2022-10-30T03:23:27;19.10;;;13.37;;
1320;SDS011;653;51.480;11.992;2022-10-30T03:25:53;19.50;;;13.90;;
1320;SDS011;653;51.480;11.992;2022-10-30T03:28:20;23.90;;;14.23;;
1320;SDS011;653;51.480;11.992;2022-10-30T03:30:47;27.03;;;13.37;;
1320;SDS011;653;51.480;11.992;2022-10-30T03:33:14;23.23;;;14.10;;
1320;SDS011;653;51.480;11.992;2022-10-30T03:35:39;24.23;;;13.20;;
1320;SDS011;653;51.480;11.992;2022-10-30T03:38:05;23.87;;;12.27;;
1320;SDS011;653;51.480;11.992;2022-10-30T03:40:30;19.93;;;12.90;;
1320;SDS011;653;51.480;11.992;2022-10-30T03:42:55;18.53;;;13.20;;
1320;SDS011;653;51.480;11.992;2022-10-30T03:45:21;22.20;;;13.37;;
1320;SDS011;653;51.480;11.992;2022-10-30T03:47:46;17.30;;;13.63;;
1320;SDS011;653;51.480;11.992;2022-10-30T03:50:12;25.17;;;12.57;;
1320;SDS011;653;51.480;11.992;2022-10-30T03:52:37;22.20;;;14.30;;
1320;SDS011;653;51.480;11.992;2022-10-30T03:55:02;19.80;;;12.67;;
1320;SDS011;653;51.480;11.992;2022-10-30T03:57:28;14.93;;;12.77;;
1320;SDS011;653;51.480;11.992;2022-10-30T03:59:53;17.97;;;12.33;;
1320;SDS011;653;51.480;11.992;2022-10-30T04:02:19;18.63;;;12.33;;
1320;SDS011;653;51.480;11.992;2022-10-30T04:04:44;21.90;;;12.53;;
1320;SDS011;653;51.480;11.992;2022-10-30T04:07:09;14.27;;;11.53;;
1320;SDS011;653;51.480;11.992;2022-10-30T04:09:35;16.63;;;13.03;;
1320;SDS011;653;51.480;11.992;2022-10-30T04:12:00;14.67;;;11.53;;
1320;SDS011;653;51.480;11.992;2022-10-30T04:14:25;16.17;;;11.97;;
1320;SDS011;653;51.480;11.992;2022-10-30T04:16:52;20.13;;;12.50;;
1320;SDS011;653;51.480;11.992;2022-10-30T04:19:17;19.20;;;12.60;;
1320;SDS011;653;51.480;11.992;2022-10-30T04:21:42;33.03;;;12.53;;
1320;SDS011;653;51.480;11.992;2022-10-30T04:24:08;21.03;;;14.00;;
1320;SDS011;653;51.480;11.992;2022-10-30T04:26:33;18.00;;;11.53;;
1320;SDS011;653;51.480;11.992;2022-10-30T04:28:59;20.13;;;12.27;;
1320;SDS011;653;51.480;11.992;2022-10-30T04:31:25;18.63;;;12.80;;
1320;SDS011;653;51.480;11.992;2022-10-30T04:33:50;18.30;;;14.37;;
1320;SDS011;653;51.480;11.992;2022-10-30T04:36:15;18.77;;;13.63;;
1320;SDS011;653;51.480;11.992;2022-10-30T04:38:42;20.40;;;13.37;;
1320;SDS011;653;51.480;11.992;2022-10-30T04:41:07;18.87;;;12.33;;
1320;SDS011;653;51.480;11.992;2022-10-30T04:43:33;18.20;;;13.23;;
1320;SDS011;653;51.480;11.992;2022-10-30T04:45:58;17.97;;;11.43;;
1320;SDS011;653;51.480;11.992;2022-10-30T04:48:23;17.17;;;11.43;;
1320;SDS011;653;51.480;11.992;2022-10-30T04:50:48;14.60;;;10.77;;
1320;SDS011;653;51.480;11.992;2022-10-30T04:53:15;16.20;;;12.97;;
1320;SDS011;653;51.480;11.992;2022-10-30T04:55:41;15.80;;;12.47;;
1320;SDS011;653;51.480;11.992;2022-10-30T04:58:08;19.23;;;11.67;;
1320;SDS011;653;51.480;11.992;2022-10-30T05:00:34;16.90;;;10.80;;
1320;SDS011;653;51.480;11.992;2022-10-30T05:03:05;17.57;;;11.67;;
1320;SDS011;653;51.480;11.992;2022-10-30T05:05:31;18.13;;;12.00;;
1320;SDS011;653;51.480;11.992;2022-10-30T05:07:57;15.23;;;11.17;;
1320;SDS011;653;51.480;11.992;2022-10-30T05:10:23;13.73;;;11.20;;
1320;SDS011;653;51.480;11.992;2022-10-30T05:12:49;17.30;;;12.67;;
1320;SDS011;653;51.480;11.992;2022-10-30T05:15:15;17.70;;;11.80;;
1320;SDS011;653;51.480;11.992;2022-10-30T05:17:41;21.97;;;12.27;;
1320;SDS011;653;51.480;11.992;2022-10-30T05:20:06;17.53;;;13.10;;
1320;SDS011;653;51.480;11.992;2022-10-30T05:22:32;20.47;;;12.87;;
1320;SDS011;653;51.480;11.992;2022-10-30T05:24:58;16.97;;;11.90;;
1320;SDS011;653;51.480;11.992;2022-10-30T05:27:23;16.60;;;12.00;;
1320;SDS011;653;51.480;11.992;2022-10-30T05:29:49;21.80;;;12.63;;
1320;SDS011;653;51.480;11.992;2022-10-30T05:32:14;17.63;;;13.13;;
1320;SDS011;653;51.480;11.992;2022-10-30T05:34:40;15.47;;;12.87;;
1320;SDS011;653;51.480;11.992;2022-10-30T05:37:05;19.87;;;11.63;;
1320;SDS011;653;51.480;11.992;2022-10-30T05:39:30;18.23;;;13.60;;
1320;SDS011;653;51.480;11.992;2022-10-30T05:41:56;25.60;;;14.27;;
1320;SDS011;653;51.480;11.992;2022-10-30T05:44:22;19.53;;;12.80;;
1320;SDS011;653;51.480;11.992;2022-10-30T05:46:47;19.73;;;13.10;;
1320;SDS011;653;51.480;11.992;2022-10-30T05:49:12;17.13;;;13.43;;
1320;SDS011;653;51.480;11.992;2022-10-30T05:51:38;19.53;;;13.70;;
1320;SDS011;653;51.480;11.992;2022-10-30T05:54:03;18.87;;;14.47;;
1320;SDS011;653;51.480;11.992;2022-10-30T05:56:29;17.37;;;12.97;;
1320;SDS011;653;51.480;11.992;2022-10-30T05:58:57;17.23;;;13.20;;
1320;SDS011;653;51.480;11.992;2022-10-30T06:01:23;20.53;;;13.60;;
1320;SDS011;653;51.480;11.992;2022-10-30T06:03:48;19.50;;;12.50;;
1320;SDS011;653;51.480;11.992;2022-10-30T06:06:14;22.27;;;12.77;;
1320;SDS011;653;51.480;11.992;2022-10-30T06:08:39;17.53;;;13.80;;
1320;SDS011;653;51.480;11.992;2022-10-30T06:11:05;19.97;;;13.43;;
1320;SDS011;653;51.480;11.992;2022-10-30T06:13:30;23.83;;;13.30;;
1320;SDS011;653;51.480;11.992;2022-10-30T06:15:56;17.40;;;13.97;;
1320;SDS011;653;51.480;11.992;2022-10-30T06:18:21;20.73;;;13.67;;
1320;SDS011;653;51.480;11.992;2022-10-30T06:20:47;16.93;;;11.53;;
1320;SDS011;653;51.480;11.992;2022-10-30T06:23:12;17.20;;;11.60;;
1320;SDS011;653;51.480;11.992;2022-10-30T06:25:38;20.57;;;13.70;;
1320;SDS011;653;51.480;11.992;2022-10-30T06:28:03;15.93;;;11.67;;
1320;SDS011;653;51.480;11.992;2022-10-30T06:30:31;19.50;;;13.30;;
1320;SDS011;653;51.480;11.992;2022-10-30T06:32:58;15.50;;;11.87;;
1320;SDS011;653;51.480;11.992;2022-10-30T06:35:24;17.90;;;12.40;;
1320;SDS011;653;51.480;11.992;2022-10-30T06:37:51;14.30;;;10.63;;
1320;SDS011;653;51.480;11.992;2022-10-30T06:40:17;18.77;;;11.90;;
1320;SDS011;653;51.480;11.992;2022-10-30T06:42:43;17.43;;;11.17;;
1320;SDS011;653;51.480;11.992;2022-10-30T06:45:10;13.03;;;10.57;;
1320;SDS011;653;51.480;11.992;2022-10-30T06:47:37;17.13;;;11.20;;
1320;SDS011;653;51.480;11.992;2022-10-30T06:50:04;18.53;;;12.17;;
1320;SDS011;653;51.480;11.992;2022-10-30T06:52:30;17.23;;;10.73;;
1320;SDS011;653;51.480;11.992;2022-10-30T06:54:56;16.40;;;9.50;;
1320;SDS011;653;51.480;11.992;2022-10-30T06:57:21;13.80;;;10.50;;
1320;SDS011;653;51.480;11.992;2022-10-30T06:59:47;13.20;;;10.17;;
1320;SDS011;653;51.480;11.992;2022-10-30T07:02:12;18.63;;;12.00;;
1320;SDS011;653;51.480;11.992;2022-10-30T07:04:37;16.13;;;10.90;;
1320;SDS011;653;51.480;11.992;2022-10-30T07:07:03;17.27;;;11.77;;
1320;SDS011;653;51.480;11.992;2022-10-30T07:09:29;19.20;;;12.03;;
1320;SDS011;653;51.480;11.992;2022-10-30T07:11:55;17.83;;;11.00;;
1320;SDS011;653;51.480;11.992;2022-10-30T07:14:20;17.87;;;13.67;;
1320;SDS011;653;51.480;11.992;2022-10-30T07:16:46;18.90;;;11.50;;
1320;SDS011;653;51.480;11.992;2022-10-30T07:19:11;19.83;;;12.80;;
1320;SDS011;653;51.480;11.992;2022-10-30T07:21:37;16.90;;;11.90;;
1320;SDS011;653;51.480;11.992;2022-10-30T07:24:02;17.47;;;11.57;;
1320;SDS011;653;51.480;11.992;2022-10-30T07:26:28;15.73;;;13.23;;
1320;SDS011;653;51.480;11.992;2022-10-30T07:28:53;18.43;;;11.70;;
1320;SDS011;653;51.480;11.992;2022-10-30T07:31:19;13.90;;;10.83;;
1320;SDS011;653;51.480;11.992;2022-10-30T07:33:45;16.53;;;11.80;;
1320;SDS011;653;51.480;11.992;2022-10-30T07:36:10;18.10;;;11.50;;
1320;SDS011;653;51.480;11.992;2022-10-30T07:38:36;24.07;;;12.80;;
1320;SDS011;653;51.480;11.992;2022-10-30T07:41:02;14.93;;;10.57;;
1320;SDS011;653;51.480;11.992;2022-10-30T07:43:27;15.87;;;11.43;;
1320;SDS011;653;51.480;11.992;2022-10-30T07:45:53;15.20;;;10.80;;
1320;SDS011;653;51.480;11.992;2022-10-30T07:48:18;11.77;;;9.87;;
1320;SDS011;653;51.480;11.992;2022-10-30T07:50:43;17.63;;;10.80;;
1320;SDS011;653;51.480;11.992;2022-10-30T07:53:09;12.73;;;9.90;;
1320;SDS011;653;51.480;11.992;2022-10-30T07:55:35;16.47;;;9.40;;
1320;SDS011;653;51.480;11.992;2022-10-30T07:58:00;15.27;;;10.30;;
1320;SDS011;653;51.480;11.992;2022-10-30T08:00:25;14.70;;;10.20;;
1320;SDS011;653;51.480;11.992;2022-10-30T08:02:51;14.90;;;10.03;;
1320;SDS011;653;51.480;11.992;2022-10-30T08:05:22;16.37;;;9.70;;
1320;SDS011;653;51.480;11.992;2022-10-30T08:07:47;13.93;;;9.40;;
1320;SDS011;653;51.480;11.992;2022-10-30T08:10:13;14.87;;;9.50;;
1320;SDS011;653;51.480;11.992;2022-10-30T08:12:38;16.57;;;9.10;;
1320;SDS011;653;51.480;11.992;2022-10-30T08:15:06;16.57;;;9.90;;
1320;SDS011;653;51.480;11.992;2022-10-30T08:17:32;14.20;;;9.70;;
1320;SDS011;653;51.480;11.992;2022-10-30T08:20:05;15.40;;;9.67;;
1320;SDS011;653;51.480;11.992;2022-10-30T08:22:31;13.83;;;8.60;;
1320;SDS011;653;51.480;11.992;2022-10-30T08:24:57;15.00;;;9.13;;
1320;SDS011;653;51.480;11.992;2022-10-30T08:27:22;15.53;;;8.77;;
1320;SDS011;653;51.480;11.992;2022-10-30T08:29:48;14.20;;;9.10;;
1320;SDS011;653;51.480;11.992;2022-10-30T08:32:13;17.17;;;9.07;;
1320;SDS011;653;51.480;11.992;2022-10-30T08:34:39;14.00;;;8.63;;
1320;SDS011;653;51.480;11.992;2022-10-30T08:37:04;13.03;;;8.90;;
1320;SDS011;653;51.480;11.992;2022-10-30T08:39:32;13.97;;;8.40;;
1320;SDS011;653;51.480;11.992;2022-10-30T08:41:57;16.90;;;9.17;;
1320;SDS011;653;51.480;11.992;2022-10-30T08:44:23;14.30;;;8.50;;
1320;SDS011;653;51.480;11.992;2022-10-30T08:46:50;16.60;;;8.83;;
1320;SDS011;653;51.480;11.992;2022-10-30T08:49:16;13.87;;;8.80;;
1320;SDS011;653;51.480;11.992;2022-10-30T08:51:41;14.53;;;10.23;;
1320;SDS011;653;51.480;11.992;2022-10-30T08:54:07;16.20;;;8.83;;
1320;SDS011;653;51.480;11.992;2022-10-30T08:56:33;10.50;;;8.57;;
1320;SDS011;653;51.480;11.992;2022-10-30T08:59:01;15.37;;;8.07;;
1320;SDS011;653;51.480;11.992;2022-10-30T09:01:27;11.87;;;8.30;;
1320;SDS011;653;51.480;11.992;2022-10-30T09:03:52;13.77;;;7.93;;
1320;SDS011;653;51.480;11.992;2022-10-30T09:06:18;10.00;;;8.80;;
1320;SDS011;653;51.480;11.992;2022-10-30T09:08:44;15.50;;;7.93;;
1320;SDS011;653;51.480;11.992;2022-10-30T09:11:10;9.47;;;7.50;;
1320;SDS011;653;51.480;11.992;2022-10-30T09:13:36;13.23;;;7.20;;
1320;SDS011;653;51.480;11.992;2022-10-30T09:16:01;13.57;;;8.13;;
1320;SDS011;653;51.480;11.992;2022-10-30T09:18:28;11.73;;;7.93;;
1320;SDS011;653;51.480;11.992;2022-10-30T09:20:54;15.10;;;7.60;;
1320;SDS011;653;51.480;11.992;2022-10-30T09:23:20;15.67;;;7.17;;
1320;SDS011;653;51.480;11.992;2022-10-30T09:25:45;15.60;;;7.90;;
1320;SDS011;653;51.480;11.992;2022-10-30T09:28:11;14.90;;;7.70;;
1320;SDS011;653;51.480;11.992;2022-10-30T09:30:37;14.93;;;7.80;;
1320;SDS011;653;51.480;11.992;2022-10-30T09:33:02;16.97;;;7.33;;
1320;SDS011;653;51.480;11.992;2022-10-30T09:35:28;11.20;;;6.80;;
1320;SDS011;653;51.480;11.992;2022-10-30T09:37:55;10.60;;;6.37;;
1320;SDS011;653;51.480;11.992;2022-10-30T09:40:40;11.47;;;6.93;;
1320;SDS011;653;51.480;11.992;2022-10-30T09:54:26;12.30;;;7.33;;
1320;SDS011;653;51.480;11.992;2022-10-30T10:05:54;14.43;;;6.87;;
1320;SDS011;653;51.480;11.992;2022-10-30T10:08:23;12.80;;;7.07;;
1320;SDS011;653;51.480;11.992;2022-10-30T10:11:23;9.70;;;6.30;;
1320;SDS011;653;51.480;11.992;2022-10-30T10:13:58;17.17;;;7.00;;
1320;SDS011;653;51.480;11.992;2022-10-30T10:16:47;9.60;;;6.50;;
1320;SDS011;653;51.480;11.992;2022-10-30T10:22:28;13.33;;;6.40;;
1320;SDS011;653;51.480;11.992;2022-10-30T10:24:59;16.43;;;6.50;;
1320;SDS011;653;51.480;11.992;2022-10-30T10:30:18;14.50;;;6.73;;
1320;SDS011;653;51.480;11.992;2022-10-30T10:32:56;14.33;;;6.43;;
1320;SDS011;653;51.480;11.992;2022-10-30T10:41:43;12.03;;;6.30;;
1320;SDS011;653;51.480;11.992;2022-10-30T10:49:47;12.13;;;6.60;;
1320;SDS011;653;51.480;11.992;2022-10-30T10:52:39;8.47;;;5.50;;
1320;SDS011;653;51.480;11.992;2022-10-30T10:55:21;17.37;;;6.90;;
1320;SDS011;653;51.480;11.992;2022-10-30T10:57:50;7.73;;;5.70;;
1320;SDS011;653;51.480;11.992;2022-10-30T11:00:17;7.43;;;4.90;;
1320;SDS011;653;51.480;11.992;2022-10-30T11:08:38;9.17;;;6.20;;
1320;SDS011;653;51.480;11.992;2022-10-30T11:11:04;11.07;;;5.80;;
1320;SDS011;653;51.480;11.992;2022-10-30T11:13:35;12.17;;;6.10;;
1320;SDS011;653;51.480;11.992;2022-10-30T11:18:50;15.70;;;5.87;;
1320;SDS011;653;51.480;11.992;2022-10-30T11:21:20;13.57;;;6.60;;
1320;SDS011;653;51.480;11.992;2022-10-30T11:23:48;15.23;;;6.13;;
1320;SDS011;653;51.480;11.992;2022-10-30T11:31:39;11.03;;;5.63;;
1320;SDS011;653;51.480;11.992;2022-10-30T11:34:12;11.77;;;6.03;;
1320;SDS011;653;51.480;11.992;2022-10-30T11:36:42;10.00;;;6.27;;
1320;SDS011;653;51.480;11.992;2022-10-30T11:39:31;12.83;;;7.97;;
1320;SDS011;653;51.480;11.992;2022-10-30T11:42:04;10.53;;;6.10;;
1320;SDS011;653;51.480;11.992;2022-10-30T11:44:39;8.60;;;5.80;;
1320;SDS011;653;51.480;11.992;2022-10-30T11:47:14;12.33;;;7.30;;
1320;SDS011;653;51.480;11.992;2022-10-30T11:49:44;9.27;;;5.80;;
1320;SDS011;653;51.480;11.992;2022-10-30T11:52:13;12.07;;;6.20;;
1320;SDS011;653;51.480;11.992;2022-10-30T11:54:42;12.27;;;6.60;;
1320;SDS011;653;51.480;11.992;2022-10-30T11:57:32;13.93;;;7.10;;
1320;SDS011;653;51.480;11.992;2022-10-30T12:00:00;12.60;;;5.70;;
1320;SDS011;653;51.480;11.992;2022-10-30T12:02:27;11.23;;;6.00;;
1320;SDS011;653;51.480;11.992;2022-10-30T12:04:54;14.57;;;6.00;;
1320;SDS011;653;51.480;11.992;2022-10-30T12:09:59;8.17;;;5.87;;
1320;SDS011;653;51.480;11.992;2022-10-30T12:12:27;12.70;;;5.80;;
1320;SDS011;653;51.480;11.992;2022-10-30T12:20:26;7.87;;;5.50;;
1320;SDS011;653;51.480;11.992;2022-10-30T12:22:51;10.70;;;6.07;;
1320;SDS011;653;51.480;11.992;2022-10-30T12:25:30;13.20;;;7.27;;
1320;SDS011;653;51.480;11.992;2022-10-30T12:27:59;11.43;;;6.33;;
1320;SDS011;653;51.480;11.992;2022-10-30T12:30:28;11.60;;;7.00;;
1320;SDS011;653;51.480;11.992;2022-10-30T12:35:48;12.23;;;5.63;;
1320;SDS011;653;51.480;11.992;2022-10-30T12:43:47;9.03;;;6.03;;
1320;SDS011;653;51.480;11.992;2022-10-30T12:49:25;9.53;;;6.13;;
1320;SDS011;653;51.480;11.992;2022-10-30T12:52:00;11.63;;;6.50;;
1320;SDS011;653;51.480;11.992;2022-10-30T13:02:31;10.90;;;6.43;;
1320;SDS011;653;51.480;11.992;2022-10-30T13:05:03;8.10;;;6.10;;
1320;SDS011;653;51.480;11.992;2022-10-30T13:07:38;12.37;;;5.77;;
1320;SDS011;653;51.480;11.992;2022-10-30T13:10:15;12.07;;;6.70;;
1320;SDS011;653;51.480;11.992;2022-10-30T13:12:43;13.00;;;5.90;;
1320;SDS011;653;51.480;11.992;2022-10-30T13:15:15;13.90;;;6.97;;
1320;SDS011;653;51.480;11.992;2022-10-30T13:17:45;8.83;;;5.57;;
1320;SDS011;653;51.480;11.992;2022-10-30T13:20:14;12.47;;;5.87;;
1320;SDS011;653;51.480;11.992;2022-10-30T13:25:41;13.27;;;6.43;;
1320;SDS011;653;51.480;11.992;2022-10-30T13:28:32;9.17;;;5.40;;
1320;SDS011;653;51.480;11.992;2022-10-30T13:33:58;8.30;;;5.90;;
1320;SDS011;653;51.480;11.992;2022-10-30T13:39:39;11.80;;;6.87;;
1320;SDS011;653;51.480;11.992;2022-10-30T13:44:59;12.90;;;7.17;;
1320;SDS011;653;51.480;11.992;2022-10-30T13:47:39;7.83;;;6.03;;
1320;SDS011;653;51.480;11.992;2022-10-30T13:50:36;13.23;;;6.20;;
1320;SDS011;653;51.480;11.992;2022-10-30T13:53:11;11.40;;;6.07;;
1320;SDS011;653;51.480;11.992;2022-10-30T13:55:40;8.53;;;6.40;;
1320;SDS011;653;51.480;11.992;2022-10-30T13:58:13;13.90;;;6.30;;
1320;SDS011;653;51.480;11.992;2022-10-30T14:03:30;9.20;;;5.90;;
1320;SDS011;653;51.480;11.992;2022-10-30T14:06:12;12.03;;;6.43;;
1320;SDS011;653;51.480;11.992;2022-10-30T14:11:33;16.70;;;6.90;;
1320;SDS011;653;51.480;11.992;2022-10-30T14:14:10;9.90;;;7.23;;
1320;SDS011;653;51.480;11.992;2022-10-30T14:22:29;11.67;;;6.50;;
1320;SDS011;653;51.480;11.992;2022-10-30T14:24:55;13.23;;;6.87;;
1320;SDS011;653;51.480;11.992;2022-10-30T14:27:25;8.30;;;5.90;;
1320;SDS011;653;51.480;11.992;2022-10-30T14:29:52;9.00;;;6.00;;
1320;SDS011;653;51.480;11.992;2022-10-30T14:37:15;11.73;;;6.50;;
1320;SDS011;653;51.480;11.992;2022-10-30T14:42:54;10.53;;;6.30;;
1320;SDS011;653;51.480;11.992;2022-10-30T14:45:26;9.73;;;6.63;;
1320;SDS011;653;51.480;11.992;2022-10-30T14:51:02;16.80;;;7.20;;
1320;SDS011;653;51.480;11.992;2022-10-30T14:56:34;11.90;;;6.30;;
1320;SDS011;653;51.480;11.992;2022-10-30T15:04:36;9.67;;;6.60;;
1320;SDS011;653;51.480;11.992;2022-10-30T15:07:33;14.00;;;7.17;;
1320;SDS011;653;51.480;11.992;2022-10-30T15:12:48;10.47;;;5.83;;
1320;SDS011;653;51.480;11.992;2022-10-30T15:15:37;10.30;;;6.00;;
1320;SDS011;653;51.480;11.992;2022-10-30T15:18:06;9.30;;;6.57;;
1320;SDS011;653;51.480;11.992;2022-10-30T15:20:33;10.60;;;6.77;;
1320;SDS011;653;51.480;11.992;2022-10-30T15:23:01;12.67;;;6.50;;
1320;SDS011;653;51.480;11.992;2022-10-30T15:25:35;10.90;;;6.53;;
1320;SDS011;653;51.480;11.992;2022-10-30T15:28:02;10.50;;;6.00;;
1320;SDS011;653;51.480;11.992;2022-10-30T15:30:29;14.40;;;6.53;;
1320;SDS011;653;51.480;11.992;2022-10-30T15:32:55;17.00;;;7.37;;
1320;SDS011;653;51.480;11.992;2022-10-30T15:35:22;12.80;;;6.30;;
1320;SDS011;653;51.480;11.992;2022-10-30T15:37:58;13.13;;;7.40;;
1320;SDS011;653;51.480;11.992;2022-10-30T15:40:25;9.07;;;6.20;;
1320;SDS011;653;51.480;11.992;2022-10-30T15:42:52;15.47;;;6.70;;
1320;SDS011;653;51.480;11.992;2022-10-30T15:45:37;13.13;;;7.27;;
1320;SDS011;653;51.480;11.992;2022-10-30T15:48:26;12.13;;;6.83;;
1320;SDS011;653;51.480;11.992;2022-10-30T15:51:02;13.27;;;7.50;;
1320;SDS011;653;51.480;11.992;2022-10-30T15:53:48;10.40;;;6.20;;
1320;SDS011;653;51.480;11.992;2022-10-30T15:56:17;10.43;;;6.47;;
1320;SDS011;653;51.480;11.992;2022-10-30T15:58:47;9.30;;;6.63;;
1320;SDS011;653;51.480;11.992;2022-10-30T16:01:23;10.70;;;6.70;;
1320;SDS011;653;51.480;11.992;2022-10-30T16:03:50;13.20;;;6.50;;
1320;SDS011;653;51.480;11.992;2022-10-30T16:06:17;12.70;;;6.27;;
1320;SDS011;653;51.480;11.992;2022-10-30T16:08:44;9.53;;;6.20;;
1320;SDS011;653;51.480;11.992;2022-10-30T16:11:11;17.83;;;8.00;;
1320;SDS011;653;51.480;11.992;2022-10-30T16:13:36;9.70;;;6.30;;
1320;SDS011;653;51.480;11.992;2022-10-30T16:16:02;9.73;;;7.03;;
1320;SDS011;653;51.480;11.992;2022-10-30T16:18:31;9.60;;;7.47;;
1320;SDS011;653;51.480;11.992;2022-10-30T16:21:00;11.43;;;6.70;;
1320;SDS011;653;51.480;11.992;2022-10-30T16:23:28;14.40;;;7.97;;
1320;SDS011;653;51.480;11.992;2022-10-30T16:25:54;12.97;;;7.60;;
1320;SDS011;653;51.480;11.992;2022-10-30T16:28:31;17.80;;;7.87;;
1320;SDS011;653;51.480;11.992;2022-10-30T16:30:59;12.70;;;8.03;;
1320;SDS011;653;51.480;11.992;2022-10-30T16:33:26;12.13;;;7.83;;
1320;SDS011;653;51.480;11.992;2022-10-30T16:35:52;12.53;;;7.50;;
1320;SDS011;653;51.480;11.992;2022-10-30T16:38:21;12.50;;;7.80;;
1320;SDS011;653;51.480;11.992;2022-10-30T16:40:47;12.20;;;7.93;;
1320;SDS011;653;51.480;11.992;2022-10-30T16:43:23;12.83;;;7.90;;
1320;SDS011;653;51.480;11.992;2022-10-30T16:45:50;15.50;;;8.30;;
1320;SDS011;653;51.480;11.992;2022-10-30T16:48:22;11.07;;;7.40;;
1320;SDS011;653;51.480;11.992;2022-10-30T16:50:55;13.10;;;7.30;;
1320;SDS011;653;51.480;11.992;2022-10-30T16:53:23;12.53;;;6.93;;
1320;SDS011;653;51.480;11.992;2022-10-30T16:55:49;13.80;;;8.27;;
1320;SDS011;653;51.480;11.992;2022-10-30T16:58:15;14.73;;;8.63;;
1320;SDS011;653;51.480;11.992;2022-10-30T17:00:47;16.57;;;10.27;;
1320;SDS011;653;51.480;11.992;2022-10-30T17:03:13;18.20;;;10.97;;
1320;SDS011;653;51.480;11.992;2022-10-30T17:05:39;14.63;;;9.20;;
1320;SDS011;653;51.480;11.992;2022-10-30T17:15:58;18.30;;;12.50;;
1320;SDS011;653;51.480;11.992;2022-10-30T17:18:36;17.73;;;10.93;;
1320;SDS011;653;51.480;11.992;2022-10-30T17:21:04;14.93;;;10.30;;
1320;SDS011;653;51.480;11.992;2022-10-30T17:23:33;16.70;;;13.90;;
1320;SDS011;653;51.480;11.992;2022-10-30T17:25:58;28.17;;;15.47;;
1320;SDS011;653;51.480;11.992;2022-10-30T17:28:32;23.30;;;17.53;;
1320;SDS011;653;51.480;11.992;2022-10-30T17:33:43;24.80;;;16.23;;
1320;SDS011;653;51.480;11.992;2022-10-30T17:36:12;19.27;;;14.40;;
1320;SDS011;653;51.480;11.992;2022-10-30T17:38:37;29.33;;;14.70;;
1320;SDS011;653;51.480;11.992;2022-10-30T17:41:03;17.23;;;14.07;;
1320;SDS011;653;51.480;11.992;2022-10-30T17:43:30;22.27;;;15.43;;